Time;durP1;ratioP1;P1;durP2;ratioP2;P2;SDS_P1;SDS_P2;PMS_P1;PMS_P2;Temp;Humidity;BMP_temperature;BMP_pressure;BME280_temperature;BME280_humidity;BME280_pressure;Samples;Min_cycle;Max_cycle;Signal;HPM_P1;HPM_P2
2022/07/22 00:02:03;;;;;;;11.75;5.97;;;;;;;18.99;55.91;100356.94;10329575;28;20538;-80
2022/07/22 00:07:05;;;;;;;9.98;6.00;;;;;;;19.14;55.84;100352.94;10333154;28;20954;-80
2022/07/22 00:12:07;;;;;;;12.13;5.30;;;;;;;19.27;55.38;100346.44;10330846;28;20143;-80
2022/07/22 00:17:09;;;;;;;9.77;5.75;;;;;;;19.42;55.12;100334.44;10330664;28;20049;-80
2022/07/22 00:22:11;;;;;;;13.75;6.03;;;;;;;19.46;55.05;100341.16;10338508;28;20058;-80
2022/07/22 00:27:13;;;;;;;9.73;5.75;;;;;;;19.48;54.88;100336.53;10337058;28;21142;-80
2022/07/22 00:32:14;;;;;;;12.52;6.63;;;;;;;19.52;54.71;100331.81;10338971;28;20173;-80
2022/07/22 00:37:16;;;;;;;8.75;5.90;;;;;;;19.48;55.10;100339.19;10334958;28;20573;-80
2022/07/22 00:42:18;;;;;;;11.10;6.38;;;;;;;19.33;55.36;100334.44;10336884;28;21116;-80
2022/07/22 00:47:24;;;;;;;11.40;6.78;;;;;;;19.06;55.91;100327.13;10335267;28;20050;-80
2022/07/22 00:52:26;;;;;;;9.43;6.40;;;;;;;18.86;56.27;100328.03;10337529;28;20566;-80
2022/07/22 00:57:28;;;;;;;13.00;6.30;;;;;;;18.84;56.24;100334.41;10352563;28;20061;-80
2022/07/22 01:02:30;;;;;;;13.25;6.88;;;;;;;18.79;56.58;100329.53;10335967;28;20102;-80
2022/07/22 01:07:32;;;;;;;10.43;6.57;;;;;;;18.79;56.30;100323.41;10353746;28;20064;-80
2022/07/22 01:12:34;;;;;;;12.73;6.90;;;;;;;18.81;56.45;100327.56;10338649;28;20061;-80
2022/07/22 01:17:36;;;;;;;10.93;6.47;;;;;;;18.75;56.62;100317.50;10350059;28;20061;-80
2022/07/22 01:22:38;;;;;;;9.77;6.95;;;;;;;18.89;56.37;100317.13;10335777;28;20082;-80
2022/07/22 01:27:40;;;;;;;11.30;6.40;;;;;;;19.05;56.20;100320.16;10333587;28;20542;-80
2022/07/22 01:32:42;;;;;;;10.07;5.97;;;;;;;19.15;55.75;100321.03;10334802;28;20105;-80
2022/07/22 01:37:44;;;;;;;11.60;6.70;;;;;;;19.12;56.00;100315.97;10335686;28;20077;-80
2022/07/22 01:42:45;;;;;;;12.10;6.28;;;;;;;19.18;55.87;100314.59;10336874;28;20050;-80
2022/07/22 01:47:47;;;;;;;10.15;6.80;;;;;;;19.11;56.04;100318.78;10333592;28;20046;-80
2022/07/22 01:52:50;;;;;;;10.50;6.20;;;;;;;19.16;55.70;100317.38;10331426;28;20538;-80
2022/07/22 01:57:52;;;;;;;9.00;6.07;;;;;;;19.27;55.10;100317.28;10349886;28;20061;-80
2022/07/22 02:02:53;;;;;;;11.50;6.10;;;;;;;19.38;55.03;100325.09;10338933;28;20057;-80
2022/07/22 02:08:00;;;;;;;8.80;5.72;;;;;;;19.44;54.74;100315.72;10338262;28;20113;-80
2022/07/22 02:13:03;;;;;;;10.90;5.47;;;;;;;19.48;54.55;100325.94;10338402;28;20507;-80
2022/07/22 02:18:16;;;;;;;8.75;6.00;;;;;;;19.34;54.17;100320.19;10339126;28;20129;-80
2022/07/22 02:23:18;;;;;;;10.73;7.45;;;;;;;19.42;53.57;100312.38;10354602;28;20108;-80
2022/07/22 02:28:20;;;;;;;12.63;8.15;;;;;;;19.30;53.51;100314.34;10339092;28;20050;-80
2022/07/22 02:33:23;;;;;;;12.40;8.35;;;;;;;19.33;53.53;100310.56;10340837;28;20054;-80
2022/07/22 02:38:25;;;;;;;13.60;8.35;;;;;;;19.35;53.22;100312.13;10338218;28;20054;-80
2022/07/22 02:43:27;;;;;;;14.98;8.80;;;;;;;19.38;52.95;100313.63;10341588;28;20053;-80
2022/07/22 02:48:29;;;;;;;10.30;7.32;;;;;;;19.45;52.88;100312.97;10357159;28;20065;-80
2022/07/22 02:53:30;;;;;;;13.40;8.73;;;;;;;19.48;53.08;100311.00;10338241;28;20056;-80
2022/07/22 02:58:32;;;;;;;11.70;8.00;;;;;;;19.38;53.43;100305.69;10337860;28;20073;-80
2022/07/22 03:03:34;;;;;;;13.85;8.30;;;;;;;19.40;53.21;100312.53;10337073;28;20462;-80
2022/07/22 03:08:37;;;;;;;11.13;8.40;;;;;;;19.35;53.39;100308.63;10332074;28;20050;-80
2022/07/22 03:13:38;;;;;;;14.05;9.20;;;;;;;19.34;53.22;100320.19;10342362;28;20050;-80
2022/07/22 03:18:40;;;;;;;14.85;9.85;;;;;;;19.26;53.69;100322.69;10347877;28;20065;-80
2022/07/22 03:23:42;;;;;;;10.93;8.77;;;;;;;19.17;53.73;100321.72;10349451;28;20062;-80
2022/07/22 03:28:43;;;;;;;15.70;9.70;;;;;;;19.25;54.06;100321.03;10333091;28;20052;-79
2022/07/22 03:33:45;;;;;;;14.15;9.88;;;;;;;19.39;53.75;100331.25;10333838;28;20050;-80
2022/07/22 03:38:47;;;;;;;13.10;8.82;;;;;;;19.40;53.73;100330.25;10330684;28;20887;-79
2022/07/22 03:43:49;;;;;;;14.07;10.40;;;;;;;19.37;53.76;100327.88;10333663;28;20057;-80
2022/07/22 03:48:51;;;;;;;14.80;11.05;;;;;;;19.36;53.86;100332.34;10330042;28;20637;-79
2022/07/22 03:53:53;;;;;;;14.77;10.70;;;;;;;19.33;53.89;100327.34;10352496;28;20060;-81
2022/07/22 03:58:55;;;;;;;15.45;11.32;;;;;;;19.36;53.97;100336.81;10340372;28;20061;-79
2022/07/22 04:03:57;;;;;;;15.07;10.30;;;;;;;19.40;53.93;100343.50;10356446;28;20058;-79
2022/07/22 04:09:05;;;;;;;14.52;10.15;;;;;;;19.42;53.56;100329.13;10340421;28;20514;-80
2022/07/22 04:14:06;;;;;;;15.05;10.43;;;;;;;19.48;53.50;100323.28;10338035;28;20849;-80
2022/07/22 04:19:09;;;;;;;15.57;10.38;;;;;;;19.54;53.38;100329.88;10338893;28;20054;-79
2022/07/22 04:24:14;;;;;;;17.40;11.18;;;;;;;19.54;53.27;100315.75;10339065;28;20531;-80
2022/07/22 04:29:16;;;;;;;16.20;11.40;;;;;;;19.61;53.39;100316.84;10339153;28;20467;-80
2022/07/22 04:34:18;;;;;;;17.23;12.13;;;;;;;19.65;53.06;100318.25;10337689;28;20460;-80
2022/07/22 04:39:20;;;;;;;17.13;12.20;;;;;;;19.61;53.02;100312.41;10337316;28;20058;-80
2022/07/22 04:44:22;;;;;;;15.05;11.40;;;;;;;19.77;52.75;100304.69;10338214;28;20054;-80
2022/07/22 04:49:25;;;;;;;14.60;11.20;;;;;;;19.90;52.63;100305.28;10340470;28;20135;-80
2022/07/22 04:54:27;;;;;;;16.27;11.63;;;;;;;20.06;52.31;100313.50;10355992;28;20407;-80
2022/07/22 04:59:29;;;;;;;15.30;10.80;;;;;;;20.05;52.40;100311.00;10337534;28;20058;-79
2022/07/22 05:04:31;;;;;;;14.70;11.93;;;;;;;20.20;51.81;100310.41;10336247;28;20045;-80
2022/07/22 05:09:33;;;;;;;14.52;11.23;;;;;;;21.20;49.96;100298.06;10336668;28;20053;-80
2022/07/22 05:14:35;;;;;;;14.50;11.10;;;;;;;24.02;44.78;100288.84;10336234;28;20463;-80
2022/07/22 05:19:39;;;;;;;15.20;10.52;;;;;;;26.50;39.50;100276.78;10331141;28;20100;-81
2022/07/22 05:24:40;;;;;;;14.10;10.90;;;;;;;26.83;38.07;100277.25;10335918;28;20042;-81
2022/07/22 05:29:42;;;;;;;11.98;9.85;;;;;;;27.61;36.85;100285.31;10337030;28;20058;-81
2022/07/22 05:34:44;;;;;;;13.05;9.73;;;;;;;26.66;37.46;100279.28;10349487;28;20803;-81
2022/07/22 05:39:46;;;;;;;10.00;8.60;;;;;;;25.39;39.15;100289.19;10336531;28;20061;-81
2022/07/22 05:44:48;;;;;;;14.00;8.48;;;;;;;24.00;41.26;100285.50;10336288;28;20046;-81
2022/07/22 05:49:49;;;;;;;12.15;9.60;;;;;;;23.33;42.44;100290.13;10336316;28;20057;-81
2022/07/22 05:54:51;;;;;;;10.60;8.35;;;;;;;22.82;43.57;100286.84;10336250;28;20046;-81
2022/07/22 05:59:53;;;;;;;13.63;9.18;;;;;;;22.51;44.17;100290.00;10333917;28;20511;-81
2022/07/22 06:04:55;;;;;;;11.75;8.68;;;;;;;22.50;44.16;100290.13;10336634;28;20088;-81
2022/07/22 06:09:57;;;;;;;10.80;8.10;;;;;;;22.41;43.95;100296.44;10351902;28;20054;-80
2022/07/22 06:15:00;;;;;;;11.77;7.75;;;;;;;22.40;44.23;100282.28;10331758;28;20113;-80
2022/07/22 06:20:02;;;;;;;11.43;8.18;;;;;;;22.42;43.79;100280.28;10349526;28;21094;-80
2022/07/22 06:25:05;;;;;;;10.13;7.97;;;;;;;22.50;43.61;100279.47;10331645;28;20046;-79
2022/07/22 06:30:29;;;;;;;8.75;7.13;;;;;;;22.43;43.14;100279.28;10345860;28;20062;-81
2022/07/22 06:35:32;;;;;;;9.77;7.00;;;;;;;22.28;42.79;100288.03;10331027;28;20412;-80
2022/07/22 06:40:36;;;;;;;8.90;6.72;;;;;;;22.46;42.81;100280.78;10348367;28;20058;-80
2022/07/22 06:45:40;;;;;;;10.38;7.03;;;;;;;22.40;43.20;100284.94;10333508;28;20136;-80
2022/07/22 06:50:41;;;;;;;10.10;6.95;;;;;;;22.41;42.90;100278.59;10330436;28;20062;-80
2022/07/22 06:55:44;;;;;;;8.20;6.32;;;;;;;22.79;41.65;100285.31;10344454;28;20053;-80
2022/07/22 07:00:47;;;;;;;9.07;6.43;;;;;;;23.06;41.13;100276.22;10327753;28;20057;-79
2022/07/22 07:05:49;;;;;;;10.85;6.45;;;;;;;23.33;41.46;100274.09;10339483;28;20065;-80
2022/07/22 07:10:52;;;;;;;6.60;5.00;;;;;;;23.15;40.23;100277.91;10327887;28;20050;-80
2022/07/22 07:15:54;;;;;;;8.43;5.60;;;;;;;22.92;40.93;100275.03;10347254;28;20200;-80
2022/07/22 07:20:58;;;;;;;7.80;5.68;;;;;;;22.72;41.26;100273.56;10330640;28;20062;-80
2022/07/22 07:26:02;;;;;;;6.85;5.50;;;;;;;22.81;40.83;100274.47;10339317;28;20109;-80
2022/07/22 07:31:05;;;;;;;7.80;5.95;;;;;;;23.03;40.70;100269.38;10330151;28;20054;-80
2022/07/22 07:36:08;;;;;;;10.85;6.50;;;;;;;22.78;41.48;100264.97;10339692;28;20054;-80
2022/07/22 07:41:11;;;;;;;8.00;5.97;;;;;;;24.04;39.17;100250.22;10345680;28;20046;-80
2022/07/22 07:46:24;;;;;;;8.68;6.40;;;;;;;24.17;38.42;100250.59;10343267;28;20050;-81
2022/07/22 07:51:26;;;;;;;8.48;6.75;;;;;;;25.58;36.66;100236.97;10329896;28;20054;-81
2022/07/22 07:56:29;;;;;;;8.80;6.65;;;;;;;26.60;34.99;100229.06;10331009;28;20054;-81
2022/07/22 08:01:32;;;;;;;6.88;5.50;;;;;;;27.15;33.79;100225.81;10345193;28;20419;-81
2022/07/22 08:06:54;;;;;;;9.02;6.20;;;;;;;28.09;32.58;100217.31;10341278;28;20197;-80
2022/07/22 08:11:57;;;;;;;7.80;5.97;;;;;;;28.53;31.90;100217.78;10325912;28;20061;-80
2022/07/22 08:17:06;;;;;;;6.78;5.38;;;;;;;27.26;32.19;100225.31;10342678;28;20058;-81
2022/07/22 08:22:09;;;;;;;9.25;5.72;;;;;;;26.87;33.99;100214.97;10328829;28;20124;-80
2022/07/22 08:27:11;;;;;;;10.32;6.25;;;;;;;26.97;32.98;100207.41;10342650;28;20567;-80
2022/07/22 08:32:18;;;;;;;8.00;5.68;;;;;;;27.26;32.14;100209.19;10347190;28;20058;-81
2022/07/22 08:37:21;;;;;;;8.50;5.82;;;;;;;27.40;32.34;100195.66;10327733;28;20046;-80
2022/07/22 08:42:29;;;;;;;8.85;6.20;;;;;;;27.38;32.27;100199.59;10342012;28;20062;-80
2022/07/22 08:47:33;;;;;;;9.27;5.95;;;;;;;27.52;32.38;100193.31;10337485;28;20056;-80
2022/07/22 08:52:44;;;;;;;9.93;5.60;;;;;;;27.84;31.91;100195.44;10336033;28;20173;-81
2022/07/22 08:57:50;;;;;;;7.03;5.40;;;;;;;28.59;31.31;100187.38;10334666;28;20508;-80
2022/07/22 09:02:52;;;;;;;7.65;5.28;;;;;;;28.91;30.48;100191.25;10333808;28;20085;-81
2022/07/22 09:08:02;;;;;;;8.10;5.50;;;;;;;28.92;29.22;100182.94;10348651;28;20046;-82
2022/07/22 09:13:07;;;;;;;8.40;5.57;;;;;;;28.98;29.71;100182.13;10332352;28;20415;-81
2022/07/22 09:18:09;;;;;;;8.77;5.75;;;;;;;28.64;30.53;100179.53;10331056;28;20057;-81
2022/07/22 09:23:24;;;;;;;7.25;5.40;;;;;;;28.46;30.93;100176.53;10331261;28;20535;-81
2022/07/22 09:28:25;;;;;;;6.32;5.05;;;;;;;28.12;31.22;100184.63;10333103;28;20915;-81
2022/07/22 09:33:29;;;;;;;6.43;4.82;;;;;;;28.11;30.94;100185.69;10328647;28;20411;-81
2022/07/22 09:38:33;;;;;;;6.95;5.60;;;;;;;28.10;30.76;100170.56;10333578;28;20411;-81
2022/07/22 09:43:36;;;;;;;10.00;5.90;;;;;;;27.60;31.41;100184.25;10332257;28;20496;-81
2022/07/22 09:48:39;;;;;;;7.80;5.47;;;;;;;27.68;31.43;100168.00;10337196;28;20132;-81
2022/07/22 09:53:41;;;;;;;9.63;5.68;;;;;;;27.69;31.43;100162.41;10331202;28;20078;-81
2022/07/22 09:58:43;;;;;;;6.70;5.70;;;;;;;27.53;31.37;100165.41;10345526;28;20058;-81
2022/07/22 10:03:51;;;;;;;7.88;5.03;;;;;;;28.07;31.50;100160.22;10350137;28;20057;-81
2022/07/22 10:08:55;;;;;;;6.07;4.70;;;;;;;28.62;30.54;100145.78;10331119;28;20423;-82
2022/07/22 10:14:07;;;;;;;5.68;4.82;;;;;;;28.82;30.36;100131.34;10346558;28;20054;-81
2022/07/22 10:19:10;;;;;;;9.75;5.10;;;;;;;29.02;29.42;100126.81;10351438;28;20046;-82
2022/07/22 10:24:17;;;;;;;7.82;5.15;;;;;;;28.96;29.86;100124.97;10330344;28;20153;-81
2022/07/22 10:29:32;;;;;;;7.25;4.90;;;;;;;29.19;29.08;100124.56;10347532;28;20060;-81
2022/07/22 10:34:34;;;;;;;6.88;4.85;;;;;;;29.11;29.75;100115.84;10333757;28;20105;-80
2022/07/22 10:40:16;;;;;;;7.65;4.78;;;;;;;28.67;29.77;100108.28;10330699;28;20046;-81
2022/07/22 10:45:18;;;;;;;7.25;5.10;;;;;;;28.56;30.22;100108.91;10334769;28;20042;-81
2022/07/22 10:50:35;;;;;;;7.00;5.00;;;;;;;27.96;30.71;100113.19;10332727;28;20120;-81
2022/07/22 10:55:57;;;;;;;8.93;4.75;;;;;;;27.84;31.42;100097.81;10330425;28;20073;-81
2022/07/22 11:01:01;;;;;;;7.45;5.05;;;;;;;27.89;31.72;100095.38;10347649;28;20469;-81
2022/07/22 11:06:20;;;;;;;7.15;4.60;;;;;;;28.07;31.09;100079.53;10331821;28;20050;-80
2022/07/22 11:11:39;;;;;;;6.10;4.97;;;;;;;28.01;30.76;100080.34;10346960;28;20535;-81
2022/07/22 11:16:42;;;;;;;7.43;4.93;;;;;;;28.21;31.09;100073.19;10346594;28;20047;-81
2022/07/22 11:21:49;;;;;;;6.90;5.00;;;;;;;28.11;30.60;100060.13;10346374;28;20050;-81
2022/07/22 11:26:54;;;;;;;6.55;4.93;;;;;;;27.63;31.54;100074.53;10324750;28;20046;-81
2022/07/22 11:32:07;;;;;;;7.65;5.13;;;;;;;28.06;31.43;100062.56;10342534;28;20151;-80
2022/07/22 11:37:09;;;;;;;6.35;4.82;;;;;;;28.67;30.95;100057.16;10346489;28;20073;-81
2022/07/22 11:42:12;;;;;;;7.15;4.85;;;;;;;28.71;30.86;100050.31;10331178;28;20610;-81
2022/07/22 11:47:14;;;;;;;8.15;4.75;;;;;;;28.81;29.88;100042.66;10331015;28;20119;-81
2022/07/22 11:52:16;;;;;;;8.48;4.70;;;;;;;28.26;30.86;100041.09;10340517;28;20058;-81
2022/07/22 11:57:18;;;;;;;9.00;5.00;;;;;;;28.48;30.55;100039.97;10345635;28;20508;-81
2022/07/22 12:02:21;;;;;;;8.13;4.80;;;;;;;28.27;29.85;100037.41;10345413;28;20621;-81
2022/07/22 12:07:23;;;;;;;6.80;4.90;;;;;;;28.40;30.36;100037.44;10330973;28;20054;-80
2022/07/22 12:12:40;;;;;;;8.75;5.13;;;;;;;28.93;30.35;100033.81;10328252;28;20062;-80
2022/07/22 12:17:42;;;;;;;6.93;4.72;;;;;;;29.30;29.41;100007.22;10354911;28;20050;-81
2022/07/22 12:22:45;;;;;;;6.90;4.70;;;;;;;29.37;28.97;100003.50;10335475;28;20058;-80
2022/07/22 12:28:01;;;;;;;7.50;4.60;;;;;;;29.55;28.81;99995.59;10339055;28;20049;-80
2022/07/22 12:33:03;;;;;;;7.35;4.82;;;;;;;29.73;29.23;99990.34;10337792;28;20132;-80
2022/07/22 12:38:07;;;;;;;7.30;4.57;;;;;;;29.76;28.81;99981.00;10328169;28;20050;-81
2022/07/22 12:43:09;;;;;;;6.43;4.38;;;;;;;29.50;28.71;99989.22;10311942;28;20521;-80
2022/07/22 12:48:11;;;;;;;7.90;5.00;;;;;;;28.89;28.98;99983.25;10341480;28;20043;-80
2022/07/22 12:53:16;;;;;;;6.55;4.50;;;;;;;28.90;29.31;99976.88;10329296;28;20065;-81
2022/07/22 12:58:20;;;;;;;6.13;4.80;;;;;;;29.05;29.49;99975.59;10348681;28;20058;-83
2022/07/22 13:03:27;;;;;;;6.68;4.63;;;;;;;29.45;29.02;99978.22;10335192;28;20141;-82
2022/07/22 13:08:30;;;;;;;7.30;4.75;;;;;;;29.69;28.37;99966.72;10348788;28;20381;-81
2022/07/22 13:13:47;;;;;;;8.18;4.57;;;;;;;29.84;27.87;99964.59;10333524;28;21004;-81
2022/07/22 13:18:52;;;;;;;6.90;4.53;;;;;;;30.09;28.40;99953.91;10327885;28;20042;-81
2022/07/22 13:23:54;;;;;;;6.82;4.78;;;;;;;30.15;28.10;99961.94;10338518;28;20065;-81
2022/07/22 13:28:56;;;;;;;5.97;4.32;;;;;;;30.34;27.60;99955.59;10331632;28;20551;-81
2022/07/22 13:33:58;;;;;;;6.63;4.60;;;;;;;29.97;27.55;99948.34;10325977;28;20542;-81
2022/07/22 13:39:02;;;;;;;12.18;4.55;;;;;;;30.06;27.96;99943.53;10307573;28;20057;-81
2022/07/22 13:44:06;;;;;;;5.60;4.45;;;;;;;29.82;28.05;99932.47;10319258;28;21405;-81
2022/07/22 13:49:11;;;;;;;9.27;4.40;;;;;;;29.69;28.23;99923.59;10345335;28;20046;-81
2022/07/22 13:54:13;;;;;;;7.80;4.43;;;;;;;29.77;28.05;99917.94;10323739;28;20061;-81
2022/07/22 13:59:16;;;;;;;8.10;4.57;;;;;;;29.88;28.73;99922.66;10322603;28;20124;-81
2022/07/22 14:04:18;;;;;;;6.03;3.95;;;;;;;30.14;27.99;99932.47;10329638;28;20058;-81
2022/07/22 14:09:20;;;;;;;7.15;4.30;;;;;;;29.81;28.81;99927.25;10327307;28;20547;-80
2022/07/22 14:14:37;;;;;;;6.82;4.28;;;;;;;29.88;28.41;99926.19;10347564;28;20427;-81
2022/07/22 14:19:39;;;;;;;7.53;4.70;;;;;;;30.17;28.08;99921.28;10327449;28;20046;-81
2022/07/22 14:24:41;;;;;;;8.23;4.63;;;;;;;30.75;27.19;99925.38;10326752;28;20054;-81
2022/07/22 14:29:43;;;;;;;6.72;4.38;;;;;;;31.01;27.24;99927.00;10321362;28;20062;-81
2022/07/22 14:34:45;;;;;;;6.10;4.55;;;;;;;30.76;27.53;99924.34;10335951;28;20055;-81
2022/07/22 14:39:47;;;;;;;5.85;4.30;;;;;;;30.96;27.62;99910.63;10318051;28;20455;-81
2022/07/22 14:44:48;;;;;;;9.57;4.15;;;;;;;31.01;27.51;99908.94;10327522;28;20053;-81
2022/07/22 14:49:50;;;;;;;7.45;4.20;;;;;;;30.53;27.62;99914.16;10322345;28;20053;-81
2022/07/22 14:54:52;;;;;;;7.00;4.10;;;;;;;30.60;27.46;99905.97;10316935;28;20054;-81
2022/07/22 14:59:54;;;;;;;6.38;4.40;;;;;;;30.25;28.26;99900.25;10327695;28;20062;-81
2022/07/22 15:04:55;;;;;;;6.53;4.05;;;;;;;30.25;27.81;99905.66;10329380;28;20086;-81
2022/07/22 15:09:57;;;;;;;5.55;4.10;;;;;;;30.08;28.29;99907.22;10341730;28;20061;-81
2022/07/22 15:14:59;;;;;;;7.72;4.22;;;;;;;30.11;28.56;99895.16;10326714;28;20492;-81
2022/07/22 15:20:02;;;;;;;5.53;4.07;;;;;;;30.39;28.26;99890.16;10320994;28;20050;-81
2022/07/22 15:25:04;;;;;;;6.30;4.20;;;;;;;29.97;28.29;99894.41;10335457;28;20065;-82
2022/07/22 15:30:09;;;;;;;5.85;4.18;;;;;;;30.02;28.80;99896.47;10339459;28;20085;-81
2022/07/22 15:35:11;;;;;;;7.72;4.50;;;;;;;29.71;28.94;99891.84;10341623;28;20058;-82
2022/07/22 15:40:13;;;;;;;5.72;4.10;;;;;;;29.77;28.81;99893.69;10328076;28;20054;-81
2022/07/22 15:45:15;;;;;;;8.23;4.00;;;;;;;29.71;28.97;99878.38;10341577;28;20062;-81
2022/07/22 15:50:21;;;;;;;6.57;4.22;;;;;;;29.69;28.77;99873.22;10336272;28;20558;-82
2022/07/22 15:55:23;;;;;;;7.35;4.28;;;;;;;29.69;29.05;99870.50;10354547;28;20557;-81
2022/07/22 16:00:25;;;;;;;5.75;3.95;;;;;;;29.79;28.88;99861.94;10334642;28;20062;-82
2022/07/22 16:05:27;;;;;;;7.88;4.22;;;;;;;29.66;28.86;99846.66;10337874;28;20054;-81
2022/07/22 16:10:29;;;;;;;7.28;4.28;;;;;;;28.98;29.52;99845.53;10338986;28;20058;-81
2022/07/22 16:15:31;;;;;;;8.00;4.40;;;;;;;28.71;29.56;99846.59;10335623;28;20496;-81
2022/07/22 16:20:33;;;;;;;6.72;4.25;;;;;;;28.42;30.64;99835.50;10334682;28;20073;-81
2022/07/22 16:25:35;;;;;;;7.43;4.03;;;;;;;28.35;31.49;99824.72;10337474;28;20488;-81
2022/07/22 16:30:37;;;;;;;7.28;4.15;;;;;;;28.81;31.16;99830.84;10337392;28;20105;-81
2022/07/22 16:35:38;;;;;;;6.18;4.00;;;;;;;28.88;31.03;99829.00;10335944;28;20389;-81
2022/07/22 16:40:40;;;;;;;6.22;4.13;;;;;;;28.58;31.50;99830.50;10332054;28;20053;-82
2022/07/22 16:45:42;;;;;;;6.38;4.00;;;;;;;28.40;31.85;99840.25;10331581;28;20046;-81
2022/07/22 16:50:44;;;;;;;6.53;4.00;;;;;;;28.38;31.56;99845.81;10351152;28;20056;-81
2022/07/22 16:55:46;;;;;;;6.45;4.00;;;;;;;28.08;32.07;99836.50;10333491;28;20046;-82
2022/07/22 17:00:47;;;;;;;6.45;4.10;;;;;;;27.87;32.90;99848.25;10329480;28;20070;-81
2022/07/22 17:05:49;;;;;;;6.63;3.88;;;;;;;27.74;32.47;99839.38;10333471;28;20074;-82
2022/07/22 17:10:52;;;;;;;7.93;4.43;;;;;;;27.40;32.81;99851.84;10333077;28;20511;-82
2022/07/22 17:15:57;;;;;;;8.63;4.70;;;;;;;27.24;32.77;99872.88;10335122;28;20094;-81
2022/07/22 17:21:04;;;;;;;5.90;4.05;;;;;;;27.16;33.30;99860.44;10333161;28;20108;-83
2022/07/22 17:26:07;;;;;;;6.93;4.15;;;;;;;27.18;32.92;99874.47;10325781;28;20054;-82
2022/07/22 17:31:09;;;;;;;8.95;4.32;;;;;;;27.24;33.16;99865.63;10334789;28;20056;-82
2022/07/22 17:36:11;;;;;;;7.72;4.25;;;;;;;27.17;33.09;99870.16;10332123;28;20058;-82
2022/07/22 17:41:14;;;;;;;7.05;4.25;;;;;;;27.04;32.99;99856.63;10333496;28;20058;-82
2022/07/22 17:46:16;;;;;;;8.85;4.40;;;;;;;27.03;33.17;99838.88;10334213;28;20100;-83
2022/07/22 17:51:18;;;;;;;6.28;4.40;;;;;;;26.83;33.68;99821.03;10331816;28;20053;-82
2022/07/22 17:56:26;;;;;;;6.43;4.35;;;;;;;26.60;33.82;99823.97;10332198;28;20064;-82
2022/07/22 18:01:32;;;;;;;6.85;4.05;;;;;;;26.40;33.94;99831.88;10329107;28;20068;-82
2022/07/22 18:06:34;;;;;;;7.53;4.38;;;;;;;26.14;34.52;99814.75;10335551;28;20121;-82
2022/07/22 18:11:36;;;;;;;9.35;4.78;;;;;;;26.13;34.63;99829.16;10344063;28;20470;-82
2022/07/22 18:16:38;;;;;;;9.00;4.50;;;;;;;26.15;34.47;99821.75;10328037;28;20057;-83
2022/07/22 18:21:55;;;;;;;7.85;4.13;;;;;;;26.08;35.06;99818.22;10330537;28;20090;-81
2022/07/22 18:26:57;;;;;;;6.20;4.20;;;;;;;26.34;34.51;99818.41;10332320;28;20061;-82
2022/07/22 18:32:01;;;;;;;7.40;4.03;;;;;;;26.36;34.74;99802.97;10327845;28;20554;-82
2022/07/22 18:37:03;;;;;;;8.45;3.97;;;;;;;26.27;35.25;99813.00;10330891;28;20050;-82
2022/07/22 18:42:06;;;;;;;5.72;4.28;;;;;;;26.11;35.56;99828.53;10330082;28;20053;-82
2022/07/22 18:47:08;;;;;;;8.02;4.93;;;;;;;26.13;35.99;99837.22;10349149;28;20046;-82
2022/07/22 18:52:10;;;;;;;12.63;4.70;;;;;;;26.00;36.02;99835.25;10346659;28;20054;-82
2022/07/22 18:57:12;;;;;;;6.28;4.20;;;;;;;25.98;36.06;99844.53;10344219;28;20076;-82
2022/07/22 19:02:13;;;;;;;6.32;3.85;;;;;;;25.89;36.19;99846.47;10328695;28;20473;-83
2022/07/22 19:07:15;;;;;;;8.05;4.57;;;;;;;25.79;36.58;99844.09;10346779;28;20085;-82
2022/07/22 19:12:19;;;;;;;6.63;4.13;;;;;;;25.85;36.87;99847.88;10331282;28;20120;-82
2022/07/22 19:17:21;;;;;;;8.02;4.28;;;;;;;25.81;37.33;99849.28;10329524;28;20504;-82
2022/07/22 19:22:22;;;;;;;11.82;4.57;;;;;;;25.73;37.22;99855.56;10329424;28;20100;-82
2022/07/22 19:27:24;;;;;;;7.10;4.10;;;;;;;25.63;37.49;99859.59;10331378;28;20113;-82
2022/07/22 19:32:26;;;;;;;6.97;4.28;;;;;;;25.69;37.58;99850.81;10322770;28;20062;-82
2022/07/22 19:37:28;;;;;;;8.23;4.95;;;;;;;25.65;37.62;99858.38;10328437;28;20048;-82
2022/07/22 19:42:31;;;;;;;5.95;4.00;;;;;;;25.62;37.82;99866.81;10345652;28;20108;-83
2022/07/22 19:47:33;;;;;;;8.57;3.90;;;;;;;25.58;37.93;99862.84;10334231;28;20054;-83
2022/07/22 19:52:35;;;;;;;8.70;4.05;;;;;;;25.45;38.11;99853.81;10342955;28;20053;-82
2022/07/22 19:57:37;;;;;;;7.20;4.15;;;;;;;25.34;38.54;99855.16;10345696;28;20042;-82
2022/07/22 20:02:39;;;;;;;9.40;4.00;;;;;;;25.26;38.51;99860.59;10344513;28;20467;-82
2022/07/22 20:07:42;;;;;;;7.28;4.22;;;;;;;25.22;38.76;99867.34;10328702;28;20127;-83
2022/07/22 20:12:44;;;;;;;5.88;3.90;;;;;;;25.18;38.62;99890.13;10330642;28;20054;-83
2022/07/22 20:17:45;;;;;;;11.13;4.20;;;;;;;25.16;38.92;99886.81;10329231;28;20049;-82
2022/07/22 20:22:47;;;;;;;5.82;3.83;;;;;;;25.14;39.97;99890.69;10331382;28;20054;-82
2022/07/22 20:27:49;;;;;;;5.45;4.20;;;;;;;24.95;40.42;99900.09;10346367;28;20081;-82
2022/07/22 20:32:51;;;;;;;6.18;4.00;;;;;;;24.93;40.47;99899.47;10327090;28;20054;-81
2022/07/22 20:37:52;;;;;;;7.38;4.00;;;;;;;24.85;40.11;99913.75;10327171;28;20093;-81
2022/07/22 20:42:54;;;;;;;6.78;4.30;;;;;;;24.83;40.32;99917.63;10338131;28;20104;-80
2022/07/22 20:47:56;;;;;;;4.78;3.83;;;;;;;24.81;40.16;99917.81;10333693;28;20054;-81
2022/07/22 20:52:58;;;;;;;6.28;4.43;;;;;;;24.76;40.29;99916.69;10334105;28;20101;-80
2022/07/22 20:58:00;;;;;;;5.53;3.97;;;;;;;24.52;40.72;99909.72;10337882;28;20054;-80
2022/07/22 21:03:02;;;;;;;6.18;4.50;;;;;;;24.22;41.38;99906.13;10336213;28;20058;-81
2022/07/22 21:08:04;;;;;;;8.02;4.68;;;;;;;24.17;41.42;99907.66;10347417;28;20054;-80
2022/07/22 21:13:06;;;;;;;7.68;4.72;;;;;;;24.20;41.63;99913.50;10337256;28;20587;-80
2022/07/22 21:18:08;;;;;;;6.32;4.60;;;;;;;24.22;41.39;99911.50;10333422;28;20057;-80
2022/07/22 21:23:10;;;;;;;6.97;4.72;;;;;;;24.18;41.70;99904.00;10336425;28;20058;-80
2022/07/22 21:28:15;;;;;;;6.53;4.78;;;;;;;24.12;41.68;99910.88;10351162;28;20073;-80
2022/07/22 21:33:17;;;;;;;7.13;5.00;;;;;;;24.09;41.84;99911.25;10335649;28;20050;-80
2022/07/22 21:38:19;;;;;;;7.25;4.75;;;;;;;24.10;42.34;99912.88;10335171;28;20373;-80
2022/07/22 21:43:21;;;;;;;6.88;4.78;;;;;;;23.85;42.92;99906.03;10335799;28;20054;-80
2022/07/22 21:48:23;;;;;;;7.72;4.90;;;;;;;23.85;43.18;99903.38;10333930;28;20050;-80
2022/07/22 21:53:25;;;;;;;7.10;4.70;;;;;;;23.85;43.30;99906.03;10350618;28;20058;-80
2022/07/22 21:58:29;;;;;;;7.22;4.68;;;;;;;23.95;42.82;99909.31;10334604;28;20054;-80
2022/07/22 22:03:31;;;;;;;7.38;4.45;;;;;;;23.96;42.89;99915.50;10349105;28;20105;-80
2022/07/22 22:08:33;;;;;;;7.85;5.22;;;;;;;23.85;43.27;99913.22;10335598;28;20045;-80
2022/07/22 22:13:35;;;;;;;7.30;5.18;;;;;;;23.47;44.38;99898.94;10335449;28;20058;-80
2022/07/22 22:18:37;;;;;;;8.25;5.03;;;;;;;23.30;44.50;99884.81;10332632;28;20117;-80
2022/07/22 22:23:39;;;;;;;6.57;4.53;;;;;;;23.29;44.44;99898.28;10334532;28;20050;-80
2022/07/22 22:28:41;;;;;;;7.10;4.90;;;;;;;23.15;44.45;99899.03;10333276;28;20515;-80
2022/07/22 22:33:44;;;;;;;9.82;5.20;;;;;;;23.22;44.63;99902.69;10333865;28;20065;-80
2022/07/22 22:38:46;;;;;;;6.78;5.28;;;;;;;23.14;45.20;99894.72;10332970;28;20113;-80
2022/07/22 22:43:48;;;;;;;8.85;5.50;;;;;;;23.21;45.18;99907.16;10331486;28;20503;-80
2022/07/22 22:48:49;;;;;;;5.63;5.03;;;;;;;23.18;45.52;99909.38;10330551;28;20777;-80
2022/07/22 22:53:51;;;;;;;7.63;5.00;;;;;;;23.13;45.75;99917.88;10330596;28;20057;-80
2022/07/22 22:58:53;;;;;;;10.18;5.97;;;;;;;23.07;49.56;99915.91;10341599;28;20049;-79
2022/07/22 23:03:55;;;;;;;10.18;6.03;;;;;;;23.03;51.43;99929.75;10346350;28;20512;-79
2022/07/22 23:08:57;;;;;;;9.45;6.70;;;;;;;22.86;52.20;99944.94;10333016;28;20507;-79
2022/07/22 23:13:59;;;;;;;10.27;6.50;;;;;;;22.60;53.39;99941.63;10346687;28;20545;-79